This is the latest recevied weather packets stored in our database for station/object AA8FM-13. If no packets are shown the sender has not sent any weather packets the latest 1 day(s).
| Time | Temp. | Humidity | Pressure | Rain* | Wind** | Luminosity | Snow |
|---|---|---|---|---|---|---|---|
| 1778077493 | 15° C | 99% | 1005.2 hPa | 0 mm | - | 45 W/m² | - |
| 1778075980 | 15° C | 99% | 1004.9 hPa | 0 mm | - | 41 W/m² | - |
| 1778075373 | 15° C | 99% | 1004.9 hPa | 0 mm | - | 33 W/m² | - |
| 1778073555 | 14.44° C | 99% | 1004.9 hPa | 0 mm | - | 52 W/m² | - |
| 1778073251 | 13.89° C | 99% | 1005 hPa | 0 mm | - | 30 W/m² | - |
| 1778072041 | 13.89° C | 99% | 1004.7 hPa | 0 mm | - | 29 W/m² | - |
| 1778071739 | 13.89° C | 99% | 1004.8 hPa | 0 mm | - | 33 W/m² | - |
| 1778070225 | 13.33° C | 99% | 1004.8 hPa | 0 mm | - | 24 W/m² | - |
| 1778067201 | 13.33° C | 99% | 1004.8 hPa | 1.78 mm | - | 12 W/m² | - |
| 1778066595 | 12.78° C | 99% | 1004.6 hPa | 3.05 mm | - | 9 W/m² | - |
| 1778065081 | 12.78° C | 99% | 1004.6 hPa | 1.78 mm | - | 5 W/m² | - |
| 1778064778 | 12.78° C | 99% | 1004.7 hPa | 3.05 mm | - | 5 W/m² | - |
| 1778064173 | 12.78° C | 99% | 1004.6 hPa | 1.78 mm | - | 4 W/m² | - |
| 1778063265 | 12.78° C | 99% | 1004.7 hPa | 4.83 mm | - | 1 W/m² | - |
| 1778062963 | 12.78° C | 99% | 1004.7 hPa | 4.83 mm | - | 0 W/m² | - |
| 1778062356 | 12.78° C | 99% | 1004.6 hPa | 3.05 mm | - | 0 W/m² | - |
| 1778062054 | 12.78° C | 99% | 1004.5 hPa | 1.78 mm | - | 0 W/m² | - |
| 1778061752 | 12.78° C | 99% | 1004.5 hPa | 3.05 mm | - | 0 W/m² | - |
| 1778060542 | 13.33° C | 99% | 1005.4 hPa | 7.87 mm | - | 0 W/m² | - |
| 1778059937 | 13.33° C | 99% | 1005.3 hPa | 6.1 mm | - | 0 W/m² | - |
| 1778059635 | 13.33° C | 99% | 1005.2 hPa | 4.83 mm | - | 0 W/m² | - |
| 1778059030 | 13.33° C | 99% | 1005.2 hPa | 6.1 mm | - | 0 W/m² | - |
| 1778058727 | 13.89° C | 99% | 1005.2 hPa | 7.87 mm | - | 0 W/m² | - |
| 1778058121 | 13.89° C | 98% | 1005.5 hPa | 4.83 mm | - | 0 W/m² | - |
| 1778057514 | 13.89° C | 97% | 1005 hPa | 1.27 mm | - | 0 W/m² | - |
* Rain latest hour (hover to see other rain measurements)
** Current wind speed in m/s (hover to see current wind gust speed)